Mus, Turkey

12:03 PM EET on November 26, 2014 (GMT +0200)
Mus Air Base | Change Station
CLOSE
Current Station
Airport
Location: Mus,
Elevation: 4154 ft
Nearby Weather Stations

Elev 4154 ft 38.75 °N, 41.66 °E | Updated 13 minutes ago

Overcast
Overcast
41 °F
Feels Like 38 °F
N
5
Wind Variable Wind from WNW

Today
High -- | Low -- °F
--% Chance of Precip.
Yesterday
High -- | Low -- °F
Precip. -- in
6:07 AM 3:54 PM
Waxing Crescent, 18% visible
Pressure 29.92 in
Visibility 3.1 miles
Clouds Few 1500 ft
Mostly Cloudy 3500 ft
Overcast 8000 ft
Windchill 38 °F
Dew Point 37 °F
Humidity 87%
Rainfall 0.00 in
Snow Depth Not available.
UV 1 out of 12
Pollen Not available.
Air Quality Not available.
Flu Activity Not available.
METAR LTCK 260950Z 29004KT 260V320 5000 BR FEW015 BKN035 OVC080 05/03 Q1013

More Conditions Fewer Conditions

Pressure 29.92 in
Visibility 3.1 miles
Clouds Few 1500 ft
Mostly Cloudy 3500 ft
Overcast 8000 ft
Windchill 38 °F
Dew Point 37 °F
Humidity 87%
Rainfall 0.00 in
Snow Depth Not available.
UV 1 out of 12
Pollen Not available.
Air Quality Not available.
Flu Activity Not available.
METAR LTCK 260950Z 29004KT 260V320 5000 BR FEW015 BKN035 OVC080 05/03 Q1013

More Conditions Fewer Conditions

10-Day Weather Forecast

Almanac

Astronomy

Nov. 26, 2014 Rise Set
Actual Time
Civil Twilight
Nautical Twilight
Astronomical Twilight
Moon
Length of Visible Light
Length of Day
Tomorrow will be .
, % of the Moon is Illuminated

Today's Extremes

Country Highs Country Lows

Community

WunderPhotos

Upload Photos

1,773,704 photos uploaded!

WunderBlogs® & News

Nearby

Air Quality

  Air Quality AQ Index Pollutant
Not available.

Snow Depth

Station Depth Elevation

Earthquake Activity

City Distance Mag. Time & Date
Minimum magnitude displayed is 2.5.

Coastal Water Temperatures

Place Temperature

Nearby Weather Stations